Time,TemperatureF,DewpointF,PressureIn,WindDirection,WindDirectionDegrees,WindSpeedMPH,WindSpeedGustMPH,Humidity,HourlyPrecipIn,Conditions,Clouds,dailyrainin,SoftwareType,DateUTC
2013-03-04 00:00:00,25.7,17.6,29.96,NNE,22,0.0,0.0,71,0.00,CLR,,0.00,WeatherDisplay:10.37,2013-03-04 05:00:00,
2013-03-04 00:01:00,25.7,17.6,29.96,NNE,22,0.0,0.0,71,0.00,CLR,,0.00,WeatherDisplay:10.37,2013-03-04 05:01:00,
2013-03-04 00:06:00,25.5,17.4,29.96,NNE,22,0.0,0.0,71,0.00,CLR,,0.00,WeatherDisplay:10.37,2013-03-04 05:06:00,
2013-03-04 00:11:00,25.3,17.2,29.96,ENE,68,0.0,0.0,71,0.00,CLR,,0.00,WeatherDisplay:10.37,2013-03-04 05:11:00,
2013-03-04 00:16:00,25.2,17.1,29.96,ESE,112,0.0,0.0,71,0.00,CLR,,0.00,WeatherDisplay:10.37,2013-03-04 05:16:00,
2013-03-04 00:21:00,25.3,17.6,29.96,ESE,112,0.0,0.0,72,0.00,CLR,,0.00,WeatherDisplay:10.37,2013-03-04 05:21:00,
2013-03-04 00:26:00,25.3,17.6,29.96,ESE,112,0.0,0.0,72,0.00,CLR,,0.00,WeatherDisplay:10.37,2013-03-04 05:26:00,
2013-03-04 00:31:00,25.5,17.7,29.96,ESE,112,0.0,0.0,72,0.00,CLR,,0.00,WeatherDisplay:10.37,2013-03-04 05:31:00,
2013-03-04 00:36:00,25.5,17.7,29.96,ESE,112,0.0,0.0,72,0.00,CLR,,0.00,WeatherDisplay:10.37,2013-03-04 05:36:00,
2013-03-04 00:41:00,25.5,17.4,29.97,North,0,3.5,3.5,71,0.00,CLR,,0.00,WeatherDisplay:10.37,2013-03-04 05:41:00,
2013-03-04 00:47:00,25.3,17.6,29.97,North,0,0.0,0.0,72,0.00,CLR,,0.00,WeatherDisplay:10.37,2013-03-04 05:47:00,
2013-03-04 00:52:00,25.5,17.7,29.98,North,0,0.0,0.1,72,0.00,CLR,,0.00,WeatherDisplay:10.37,2013-03-04 05:52:00,
2013-03-04 00:57:00,25.3,17.6,29.98,North,0,0.0,0.0,72,0.00,CLR,,0.00,WeatherDisplay:10.37,2013-03-04 05:57:00,
2013-03-04 01:02:00,25.3,17.6,29.98,North,0,0.0,0.0,72,0.00,CLR,,0.00,WeatherDisplay:10.37,2013-03-04 06:02:00,
2013-03-04 01:07:00,25.3,17.6,29.98,North,0,0.0,0.0,72,0.00,CLR,,0.00,WeatherDisplay:10.37,2013-03-04 06:07:00,
2013-03-04 01:12:00,25.2,17.7,29.98,North,0,0.0,0.0,73,0.00,CLR,,0.00,WeatherDisplay:10.37,2013-03-04 06:12:00,
2013-03-04 01:17:00,25.3,17.9,29.99,North,0,0.0,0.0,73,0.00,CLR,,0.00,WeatherDisplay:10.37,2013-03-04 06:17:00,
2013-03-04 01:22:00,25.2,17.7,29.99,NNE,22,0.0,0.0,73,0.00,CLR,,0.00,WeatherDisplay:10.37,2013-03-04 06:22:00,
2013-03-04 01:27:00,25.0,17.5,29.98,NNE,22,0.0,0.0,73,0.00,CLR,,0.00,WeatherDisplay:10.37,2013-03-04 06:27:00,
2013-03-04 01:32:00,25.0,17.5,29.99,NNE,22,0.0,0.0,73,0.00,CLR,,0.00,WeatherDisplay:10.37,2013-03-04 06:32:00,
2013-03-04 01:37:00,24.6,17.2,29.99,NNE,22,0.0,0.0,73,0.00,CLR,,0.00,WeatherDisplay:10.37,2013-03-04 06:37:00,
2013-03-04 01:42:00,24.4,17.0,29.99,NNE,22,0.0,0.0,73,0.00,CLR,,0.00,WeatherDisplay:10.37,2013-03-04 06:42:00,
2013-03-04 01:47:00,24.4,17.0,30.00,NNE,22,0.0,0.0,73,0.00,CLR,,0.00,WeatherDisplay:10.37,2013-03-04 06:47:00,
2013-03-04 01:52:00,24.1,16.7,30.00,NNE,22,0.0,0.0,73,0.00,CLR,,0.00,WeatherDisplay:10.37,2013-03-04 06:52:00,
2013-03-04 01:57:00,24.1,16.7,29.99,NNE,22,0.0,0.0,73,0.00,CLR,,0.00,WeatherDisplay:10.37,2013-03-04 06:57:00,
2013-03-04 02:03:00,23.9,16.5,29.99,NNE,22,0.0,0.0,73,0.00,CLR,,0.00,WeatherDisplay:10.37,2013-03-04 07:03:00,
2013-03-04 02:08:00,23.7,16.3,29.99,NNE,22,0.0,0.0,73,0.00,CLR,,0.00,WeatherDisplay:10.37,2013-03-04 07:08:00,
2013-03-04 02:13:00,23.5,16.5,29.99,NNE,22,0.0,0.0,74,0.00,CLR,,0.00,WeatherDisplay:10.37,2013-03-04 07:13:00,
2013-03-04 02:18:00,23.5,16.5,30.00,NNE,22,0.0,0.0,74,0.00,CLR,,0.00,WeatherDisplay:10.37,2013-03-04 07:18:00,
2013-03-04 02:23:00,23.5,16.5,30.00,NNE,22,0.0,0.0,74,0.00,CLR,,0.00,WeatherDisplay:10.37,2013-03-04 07:23:00,
2013-03-04 02:28:00,23.4,16.3,30.00,North,0,1.2,0.0,74,0.00,CLR,,0.00,WeatherDisplay:10.37,2013-03-04 07:28:00,
2013-03-04 02:33:00,23.4,16.3,29.99,North,0,0.0,0.0,74,0.00,CLR,,0.00,WeatherDisplay:10.37,2013-03-04 07:33:00,
2013-03-04 02:38:00,23.4,16.6,29.99,North,0,0.0,0.0,75,0.00,CLR,,0.00,WeatherDisplay:10.37,2013-03-04 07:38:00,
2013-03-04 02:43:00,23.4,16.6,30.00,North,0,0.0,0.0,75,0.00,CLR,,0.00,WeatherDisplay:10.37,2013-03-04 07:43:00,
2013-03-04 02:48:00,23.4,16.6,30.00,NW,315,0.0,0.0,75,0.00,CLR,,0.00,WeatherDisplay:10.37,2013-03-04 07:48:00,
2013-03-04 02:53:00,23.5,16.8,30.00,NW,315,0.0,0.0,75,0.00,CLR,,0.00,WeatherDisplay:10.37,2013-03-04 07:53:00,
2013-03-04 02:58:00,23.5,16.8,30.00,NW,315,0.0,0.0,75,0.00,CLR,,0.00,WeatherDisplay:10.37,2013-03-04 07:58:00,
2013-03-04 03:03:00,23.5,16.8,30.00,NW,315,0.0,0.0,75,0.00,CLR,,0.00,WeatherDisplay:10.37,2013-03-04 08:03:00,
2013-03-04 03:08:00,23.4,16.9,30.01,NW,315,0.0,0.0,76,0.00,CLR,,0.00,WeatherDisplay:10.37,2013-03-04 08:08:00,
2013-03-04 03:13:00,23.4,16.6,30.01,NW,315,0.0,0.0,75,0.00,CLR,,0.00,WeatherDisplay:10.37,2013-03-04 08:13:00,
2013-03-04 03:19:00,23.2,16.7,30.01,NW,315,0.0,0.0,76,0.00,CLR,,0.00,WeatherDisplay:10.37,2013-03-04 08:19:00,
2013-03-04 03:24:00,23.2,16.7,30.00,NW,315,0.0,0.0,76,0.00,CLR,,0.00,WeatherDisplay:10.37,2013-03-04 08:24:00,
2013-03-04 03:29:00,22.8,16.4,30.00,NW,315,0.0,0.0,76,0.00,CLR,,0.00,WeatherDisplay:10.37,2013-03-04 08:29:00,
2013-03-04 03:34:00,22.8,16.4,30.01,NW,315,0.0,0.0,76,0.00,CLR,,0.00,WeatherDisplay:10.37,2013-03-04 08:34:00,
2013-03-04 03:39:00,22.8,16.4,30.01,NW,315,0.0,0.0,76,0.00,CLR,,0.00,WeatherDisplay:10.37,2013-03-04 08:39:00,
2013-03-04 03:44:00,22.8,16.4,30.01,NW,315,0.0,0.0,76,0.00,CLR,,0.00,WeatherDisplay:10.37,2013-03-04 08:44:00,
2013-03-04 03:49:00,22.6,16.2,30.01,NW,315,0.0,0.0,76,0.00,CLR,,0.00,WeatherDisplay:10.37,2013-03-04 08:49:00,
2013-03-04 03:54:00,22.5,16.0,30.01,NW,315,0.0,0.0,76,0.00,CLR,,0.00,WeatherDisplay:10.37,2013-03-04 08:54:00,
2013-03-04 03:59:00,22.5,16.0,30.01,NW,315,0.0,0.0,76,0.00,CLR,,0.00,WeatherDisplay:10.37,2013-03-04 08:59:00,
2013-03-04 04:04:00,22.5,16.3,30.01,NW,315,0.0,0.0,77,0.00,CLR,,0.00,WeatherDisplay:10.37,2013-03-04 09:04:00,
2013-03-04 04:09:00,22.3,16.2,30.01,NW,315,0.0,0.0,77,0.00,CLR,,0.00,WeatherDisplay:10.37,2013-03-04 09:09:00,
2013-03-04 04:14:00,22.3,16.2,30.02,NW,315,0.0,0.0,77,0.00,CLR,,0.00,WeatherDisplay:10.37,2013-03-04 09:14:00,
2013-03-04 04:19:00,22.1,16.0,30.02,NW,315,0.0,0.0,77,0.00,CLR,,0.00,WeatherDisplay:10.37,2013-03-04 09:19:00,
2013-03-04 04:24:00,22.1,16.0,30.01,NW,315,0.0,0.0,77,0.00,CLR,,0.00,WeatherDisplay:10.37,2013-03-04 09:24:00,
2013-03-04 04:29:00,22.1,16.0,30.01,NW,315,0.0,0.0,77,0.00,CLR,,0.00,WeatherDisplay:10.37,2013-03-04 09:29:00,
2013-03-04 04:35:00,22.3,16.2,30.02,NW,315,0.0,0.0,77,0.00,CLR,,0.00,WeatherDisplay:10.37,2013-03-04 09:35:00,
2013-03-04 04:40:00,22.1,16.0,30.02,NW,315,0.0,0.0,77,0.00,CLR,,0.00,WeatherDisplay:10.37,2013-03-04 09:40:00,
2013-03-04 04:45:00,22.1,16.0,30.02,NW,315,0.0,0.0,77,0.00,CLR,,0.00,WeatherDisplay:10.37,2013-03-04 09:45:00,
2013-03-04 04:50:00,22.1,16.0,30.03,NW,315,0.0,0.0,77,0.00,CLR,,0.00,WeatherDisplay:10.37,2013-03-04 09:50:00,
2013-03-04 04:55:00,22.1,16.0,30.03,NW,315,0.0,0.0,77,0.00,CLR,,0.00,WeatherDisplay:10.37,2013-03-04 09:55:00,
2013-03-04 05:00:00,22.1,16.3,30.03,NW,315,0.0,0.0,78,0.00,CLR,,0.00,WeatherDisplay:10.37,2013-03-04 10:00:00,
2013-03-04 05:05:00,22.1,16.3,30.03,NW,315,0.0,0.0,78,0.00,CLR,,0.00,WeatherDisplay:10.37,2013-03-04 10:05:00,
2013-03-04 05:10:00,22.1,16.3,30.04,NW,315,0.0,0.0,78,0.00,CLR,,0.00,WeatherDisplay:10.37,2013-03-04 10:10:00,
2013-03-04 05:15:00,21.9,16.1,30.04,NW,315,0.0,0.0,78,0.00,CLR,,0.00,WeatherDisplay:10.37,2013-03-04 10:15:00,
2013-03-04 05:20:00,21.9,16.1,30.04,NW,315,0.0,0.0,78,0.00,CLR,,0.00,WeatherDisplay:10.37,2013-03-04 10:20:00,
2013-03-04 05:25:00,21.9,16.1,30.04,NW,315,0.0,0.0,78,0.00,CLR,,0.00,WeatherDisplay:10.37,2013-03-04 10:25:00,
2013-03-04 05:30:00,21.9,16.1,30.04,NW,315,0.0,0.0,78,0.00,CLR,,0.00,WeatherDisplay:10.37,2013-03-04 10:30:00,
2013-03-04 05:35:00,21.9,16.4,30.05,NW,315,0.0,0.0,79,0.00,CLR,,0.00,WeatherDisplay:10.37,2013-03-04 10:35:00,
2013-03-04 05:40:00,21.9,16.4,30.05,NW,315,0.0,0.0,79,0.00,CLR,,0.00,WeatherDisplay:10.37,2013-03-04 10:40:00,
2013-03-04 05:45:00,21.9,16.1,30.05,NW,315,0.0,0.0,78,0.00,CLR,,0.00,WeatherDisplay:10.37,2013-03-04 10:45:00,
2013-03-04 05:51:00,21.9,16.1,30.05,NW,315,0.0,0.0,78,0.00,CLR,,0.00,WeatherDisplay:10.37,2013-03-04 10:51:00,
2013-03-04 05:56:00,21.7,15.9,30.05,NW,315,0.0,0.0,78,0.00,CLR,,0.00,WeatherDisplay:10.37,2013-03-04 10:56:00,
2013-03-04 06:01:00,21.7,15.9,30.05,NW,315,0.0,0.0,78,0.00,CLR,,0.00,WeatherDisplay:10.37,2013-03-04 11:01:00,
2013-03-04 06:06:00,21.7,16.2,30.06,NW,315,0.0,0.0,79,0.00,CLR,,0.00,WeatherDisplay:10.37,2013-03-04 11:06:00,
2013-03-04 06:11:00,21.9,16.4,30.06,NW,315,0.0,0.0,79,0.00,CLR,,0.00,WeatherDisplay:10.37,2013-03-04 11:11:00,
2013-03-04 06:16:00,21.9,16.4,30.06,NW,315,0.0,0.0,79,0.00,CLR,,0.00,WeatherDisplay:10.37,2013-03-04 11:16:00,
2013-03-04 06:21:00,21.7,16.2,30.06,NW,315,0.0,0.0,79,0.00,CLR,,0.00,WeatherDisplay:10.37,2013-03-04 11:21:00,
2013-03-04 06:26:00,21.7,16.2,30.06,North,0,3.6,3.6,79,0.00,CLR,,0.00,WeatherDisplay:10.37,2013-03-04 11:26:00,
2013-03-04 06:31:00,21.6,16.1,30.06,North,0,0.0,0.0,79,0.00,CLR,,0.00,WeatherDisplay:10.37,2013-03-04 11:31:00,
2013-03-04 06:36:00,21.4,15.9,30.07,North,0,0.0,0.0,79,0.00,CLR,,0.00,WeatherDisplay:10.37,2013-03-04 11:36:00,
2013-03-04 06:41:00,21.4,15.9,30.07,North,0,0.0,0.0,79,0.00,CLR,,0.00,WeatherDisplay:10.37,2013-03-04 11:41:00,
2013-03-04 06:46:00,21.4,15.9,30.06,North,0,0.0,0.0,79,0.00,CLR,,0.00,WeatherDisplay:10.37,2013-03-04 11:46:00,
2013-03-04 06:51:00,21.4,15.9,30.06,North,0,0.0,0.0,79,0.00,CLR,,0.00,WeatherDisplay:10.37,2013-03-04 11:51:00,
2013-03-04 06:56:00,21.4,15.9,30.06,North,0,0.0,0.0,79,0.00,CLR,,0.00,WeatherDisplay:10.37,2013-03-04 11:56:00,
2013-03-04 07:01:00,21.4,15.9,30.06,North,0,0.0,0.0,79,0.00,CLR,,0.00,WeatherDisplay:10.37,2013-03-04 12:01:00,
2013-03-04 07:07:00,21.4,15.9,30.06,North,0,0.0,0.0,79,0.00,CLR,,0.00,WeatherDisplay:10.37,2013-03-04 12:07:00,
2013-03-04 07:12:00,21.6,16.1,30.07,North,0,0.0,0.0,79,0.00,CLR,,0.00,WeatherDisplay:10.37,2013-03-04 12:12:00,
2013-03-04 07:17:00,21.6,16.1,30.07,North,0,0.0,0.0,79,0.00,CLR,,0.00,WeatherDisplay:10.37,2013-03-04 12:17:00,
2013-03-04 07:22:00,21.7,16.2,30.07,North,0,0.0,0.0,79,0.00,CLR,,0.00,WeatherDisplay:10.37,2013-03-04 12:22:00,
2013-03-04 07:27:00,21.6,16.1,30.07,North,0,0.0,0.0,79,0.00,CLR,,0.00,WeatherDisplay:10.37,2013-03-04 12:27:00,
2013-03-04 07:32:00,21.6,16.1,30.07,North,0,0.0,0.0,79,0.00,CLR,,0.00,WeatherDisplay:10.37,2013-03-04 12:32:00,
2013-03-04 07:37:00,21.7,16.2,30.07,North,0,0.0,0.0,79,0.00,CLR,,0.00,WeatherDisplay:10.37,2013-03-04 12:37:00,
2013-03-04 07:42:00,21.9,16.4,30.07,NW,315,0.0,0.0,79,0.00,CLR,,0.00,WeatherDisplay:10.37,2013-03-04 12:42:00,
2013-03-04 07:47:00,22.3,17.0,30.07,NW,315,0.0,0.0,80,0.00,CLR,,0.00,WeatherDisplay:10.37,2013-03-04 12:47:00,
2013-03-04 07:52:00,22.6,17.4,30.07,NE,45,2.3,2.3,80,0.00,CLR,,0.00,WeatherDisplay:10.37,2013-03-04 12:52:00,
2013-03-04 07:57:00,22.8,17.6,30.07,SSW,202,2.3,2.3,80,0.00,CLR,,0.00,WeatherDisplay:10.37,2013-03-04 12:57:00,
2013-03-04 08:02:00,22.8,17.6,30.07,SSW,202,0.0,0.0,80,0.00,CLR,,0.00,WeatherDisplay:10.37,2013-03-04 13:02:00,
2013-03-04 08:07:00,23.2,17.9,30.06,SSW,202,0.0,0.0,80,0.00,CLR,,0.00,WeatherDisplay:10.37,2013-03-04 13:07:00,
2013-03-04 08:12:00,23.5,18.0,30.07,East,90,2.5,2.5,79,0.00,CLR,,0.00,WeatherDisplay:10.37,2013-03-04 13:12:00,
2013-03-04 08:17:00,23.5,18.0,30.07,East,90,0.0,0.0,79,0.00,CLR,,0.00,WeatherDisplay:10.37,2013-03-04 13:17:00,
2013-03-04 08:23:00,23.9,18.3,30.07,East,90,0.0,0.0,79,0.00,CLR,,0.00,WeatherDisplay:10.37,2013-03-04 13:23:00,
2013-03-04 08:28:00,24.4,18.9,30.07,East,90,0.0,0.0,79,0.00,CLR,,0.00,WeatherDisplay:10.37,2013-03-04 13:28:00,
2013-03-04 08:33:00,24.8,19.2,30.07,East,90,0.0,0.0,79,0.00,CLR,,0.00,WeatherDisplay:10.37,2013-03-04 13:33:00,
2013-03-04 08:38:00,25.5,19.9,30.08,ESE,112,0.0,0.0,79,0.00,CLR,,0.00,WeatherDisplay:10.37,2013-03-04 13:38:00,
2013-03-04 08:43:00,26.2,20.6,30.08,SE,135,0.0,0.0,79,0.00,CLR,,0.00,WeatherDisplay:10.37,2013-03-04 13:43:00,
2013-03-04 08:48:00,27.1,21.5,30.08,SE,135,0.0,0.0,79,0.00,CLR,,0.00,WeatherDisplay:10.37,2013-03-04 13:48:00,
2013-03-04 08:53:00,28.0,22.4,30.08,SE,135,0.0,0.0,79,0.00,CLR,,0.00,WeatherDisplay:10.37,2013-03-04 13:53:00,
2013-03-04 08:58:00,28.8,23.1,30.09,SE,135,0.0,0.0,79,0.00,CLR,,0.00,WeatherDisplay:10.37,2013-03-04 13:58:00,
2013-03-04 09:03:00,29.5,23.2,30.09,SE,135,0.0,0.0,77,0.00,CLR,,0.00,WeatherDisplay:10.37,2013-03-04 14:03:00,
2013-03-04 09:08:00,30.4,24.0,30.09,SSE,158,0.0,0.0,77,0.00,CLR,,0.00,WeatherDisplay:10.37,2013-03-04 14:08:00,
2013-03-04 09:13:00,31.1,24.4,30.09,SSE,158,0.0,0.0,76,0.00,CLR,,0.00,WeatherDisplay:10.37,2013-03-04 14:13:00,
2013-03-04 09:18:00,31.6,24.3,30.09,South,180,0.0,0.0,74,0.00,CLR,,0.00,WeatherDisplay:10.37,2013-03-04 14:18:00,
2013-03-04 09:23:00,32.5,24.8,30.09,ENE,68,3.5,3.5,73,0.00,CLR,,0.00,WeatherDisplay:10.37,2013-03-04 14:23:00,
2013-03-04 09:28:00,33.3,25.2,30.09,NE,45,4.6,4.6,72,0.00,CLR,,0.00,WeatherDisplay:10.37,2013-03-04 14:28:00,
2013-03-04 09:33:00,34.0,25.6,30.09,NE,45,5.8,5.8,71,0.00,CLR,,0.00,WeatherDisplay:10.37,2013-03-04 14:33:00,
2013-03-04 09:39:00,34.5,25.7,30.09,NE,45,6.9,6.9,70,0.00,CLR,,0.00,WeatherDisplay:10.37,2013-03-04 14:39:00,
2013-03-04 09:44:00,34.9,25.7,30.09,NE,45,3.5,3.5,69,0.00,CLR,,0.00,WeatherDisplay:10.37,2013-03-04 14:44:00,
2013-03-04 09:49:00,35.2,26.1,30.09,ENE,68,3.5,3.5,69,0.00,CLR,,0.00,WeatherDisplay:10.37,2013-03-04 14:49:00,
2013-03-04 09:54:00,35.8,25.9,30.09,ENE,68,3.5,3.5,67,0.00,CLR,,0.00,WeatherDisplay:10.37,2013-03-04 14:54:00,
2013-03-04 09:59:00,36.3,25.7,30.09,ENE,68,1.2,1.2,65,0.00,CLR,,0.00,WeatherDisplay:10.37,2013-03-04 14:59:00,
2013-03-04 10:04:00,36.7,26.0,30.09,NNE,22,5.8,5.8,65,0.00,CLR,,0.00,WeatherDisplay:10.37,2013-03-04 15:04:00,
2013-03-04 10:09:00,37.4,26.7,30.09,NNE,22,4.6,4.6,65,0.00,CLR,,0.00,WeatherDisplay:10.37,2013-03-04 15:09:00,
2013-03-04 10:14:00,37.9,26.8,30.09,ENE,68,4.6,4.6,64,0.00,CLR,,0.00,WeatherDisplay:10.37,2013-03-04 15:14:00,
2013-03-04 10:19:00,38.5,26.6,30.09,NE,45,3.5,3.5,62,0.00,CLR,,0.00,WeatherDisplay:10.37,2013-03-04 15:19:00,
2013-03-04 10:24:00,39.0,26.7,30.09,NE,45,2.3,2.3,61,0.00,CLR,,0.00,WeatherDisplay:10.37,2013-03-04 15:24:00,
2013-03-04 10:29:00,39.6,27.2,30.08,NNE,22,4.6,4.6,61,0.00,CLR,,0.00,WeatherDisplay:10.37,2013-03-04 15:29:00,
2013-03-04 10:34:00,40.1,26.9,30.08,SSE,158,3.5,3.5,59,0.00,CLR,,0.00,WeatherDisplay:10.37,2013-03-04 15:34:00,
2013-03-04 10:39:00,40.8,28.0,30.09,NE,45,2.3,0.0,60,0.00,CLR,,0.00,WeatherDisplay:10.37,2013-03-04 15:39:00,
2013-03-04 10:44:00,41.4,27.3,30.08,NNE,22,4.9,4.9,57,0.00,CLR,,0.00,WeatherDisplay:10.37,2013-03-04 15:44:00,
2013-03-04 10:49:00,41.7,27.6,30.08,NNW,338,3.5,3.5,57,0.00,CLR,,0.00,WeatherDisplay:10.37,2013-03-04 15:49:00,
2013-03-04 10:55:00,42.4,28.3,30.08,ENE,68,5.4,5.4,57,0.00,CLR,,0.00,WeatherDisplay:10.37,2013-03-04 15:55:00,
2013-03-04 11:00:00,42.6,28.0,30.08,NE,38,0.0,6.0,56,0.00,CLR,,0.00,WeatherDisplay:10.37,2013-03-04 16:00:00,
2013-03-04 11:05:00,43.2,27.6,30.08,ENE,68,5.8,5.8,54,0.00,CLR,,0.00,WeatherDisplay:10.37,2013-03-04 16:05:00,
2013-03-04 11:10:00,43.3,27.3,30.08,NE,45,4.6,4.6,53,0.00,CLR,,0.00,WeatherDisplay:10.37,2013-03-04 16:10:00,
2013-03-04 11:15:00,43.6,28.5,30.08,NE,43,1.0,7.0,55,0.00,CLR,,0.00,WeatherDisplay:10.37,2013-03-04 16:15:00,
2013-03-04 11:20:00,44.1,27.5,30.08,NNE,22,4.6,4.6,52,0.00,CLR,,0.00,WeatherDisplay:10.37,2013-03-04 16:20:00,
2013-03-04 11:25:00,44.4,28.3,30.08,NNW,338,4.6,4.6,53,0.00,CLR,,0.00,WeatherDisplay:10.37,2013-03-04 16:25:00,
2013-03-04 11:30:00,45.1,29.0,30.08,NE,45,3.5,3.5,53,0.00,CLR,,0.00,WeatherDisplay:10.37,2013-03-04 16:30:00,
2013-03-04 11:35:00,45.5,28.9,30.07,NNE,22,4.6,4.6,52,0.00,CLR,,0.00,WeatherDisplay:10.37,2013-03-04 16:35:00,
2013-03-04 11:40:00,46.0,29.4,30.07,NE,45,3.5,3.5,52,0.00,CLR,,0.00,WeatherDisplay:10.37,2013-03-04 16:40:00,
2013-03-04 11:45:00,46.2,28.6,30.07,NE,45,5.8,5.8,50,0.00,CLR,,0.00,WeatherDisplay:10.37,2013-03-04 16:45:00,
2013-03-04 11:50:00,46.6,28.9,30.07,NNW,338,0.0,0.0,50,0.00,CLR,,0.00,WeatherDisplay:10.37,2013-03-04 16:50:00,
2013-03-04 11:55:00,46.6,28.9,30.07,NNE,22,6.9,6.9,50,0.00,CLR,,0.00,WeatherDisplay:10.37,2013-03-04 16:55:00,
2013-03-04 12:00:00,46.9,29.2,30.07,NW,315,5.8,5.8,50,0.00,CLR,,0.00,WeatherDisplay:10.37,2013-03-04 17:00:00,
2013-03-04 12:05:00,47.5,29.3,30.07,NNE,22,3.5,3.5,49,0.00,CLR,,0.00,WeatherDisplay:10.37,2013-03-04 17:05:00,
2013-03-04 12:10:00,48.0,29.7,30.07,ENE,68,5.4,5.4,49,0.00,CLR,,0.00,WeatherDisplay:10.37,2013-03-04 17:10:00,
2013-03-04 12:15:00,48.7,29.4,30.07,North,0,3.5,3.5,47,0.00,CLR,,0.00,WeatherDisplay:10.37,2013-03-04 17:15:00,
2013-03-04 12:20:00,49.1,29.2,30.06,ENE,68,5.8,5.8,46,0.00,CLR,,0.00,WeatherDisplay:10.37,2013-03-04 17:20:00,
2013-03-04 12:25:00,48.9,28.5,30.06,NE,45,5.6,5.6,45,0.00,CLR,,0.00,WeatherDisplay:10.37,2013-03-04 17:25:00,
2013-03-04 12:31:00,48.9,29.0,30.07,NNE,22,6.9,6.9,46,0.00,CLR,,0.00,WeatherDisplay:10.37,2013-03-04 17:31:00,
2013-03-04 12:36:00,48.9,29.0,30.07,North,0,5.6,5.6,46,0.00,CLR,,0.00,WeatherDisplay:10.37,2013-03-04 17:36:00,
2013-03-04 12:41:00,49.3,29.9,30.06,North,0,6.9,6.9,47,0.00,CLR,,0.00,WeatherDisplay:10.37,2013-03-04 17:41:00,
2013-03-04 12:46:00,49.6,30.2,30.06,NNW,338,6.9,6.9,47,0.00,CLR,,0.00,WeatherDisplay:10.37,2013-03-04 17:46:00,
2013-03-04 12:51:00,49.6,29.7,30.06,NNE,22,5.8,5.8,46,0.00,CLR,,0.00,WeatherDisplay:10.37,2013-03-04 17:51:00,
2013-03-04 12:56:00,49.8,29.3,30.05,NE,45,6.0,6.0,45,0.00,CLR,,0.00,WeatherDisplay:10.37,2013-03-04 17:56:00,
2013-03-04 13:01:00,49.8,29.3,30.05,SE,135,0.0,0.0,45,0.00,CLR,,0.00,WeatherDisplay:10.37,2013-03-04 18:01:00,
2013-03-04 13:06:00,50.2,29.1,30.05,ENE,68,3.5,3.5,44,0.00,CLR,,0.00,WeatherDisplay:10.37,2013-03-04 18:06:00,
2013-03-04 13:11:00,50.4,28.7,30.05,NE,45,6.9,6.9,43,0.00,CLR,,0.00,WeatherDisplay:10.37,2013-03-04 18:11:00,
2013-03-04 13:16:00,50.4,29.2,30.04,NNE,22,6.9,6.9,44,0.00,CLR,,0.00,WeatherDisplay:10.37,2013-03-04 18:16:00,
2013-03-04 13:21:00,50.5,29.4,30.04,NNE,22,6.9,6.9,44,0.00,CLR,,0.00,WeatherDisplay:10.37,2013-03-04 18:21:00,
2013-03-04 13:26:00,50.5,28.8,30.03,ENE,68,4.6,4.6,43,0.00,CLR,,0.00,WeatherDisplay:10.37,2013-03-04 18:26:00,
2013-03-04 13:29:00,50.7,29.0,30.03,NE,45,3.5,3.5,43,0.00,CLR,,0.00,WeatherDisplay:10.37,2013-03-04 18:29:00,
2013-03-04 13:35:00,50.7,29.0,30.03,North,0,0.0,0.7,43,0.00,CLR,,0.00,WeatherDisplay:10.37,2013-03-04 18:35:00,
2013-03-04 13:40:00,50.7,28.4,30.03,SE,135,4.6,4.6,42,0.00,CLR,,0.00,WeatherDisplay:10.37,2013-03-04 18:40:00,
2013-03-04 13:45:00,50.9,28.6,30.02,ENE,68,6.9,6.9,42,0.00,CLR,,0.00,WeatherDisplay:10.37,2013-03-04 18:45:00,
2013-03-04 13:50:00,51.1,28.2,30.02,ENE,68,4.7,4.7,41,0.00,CLR,,0.00,WeatherDisplay:10.37,2013-03-04 18:50:00,
2013-03-04 13:55:00,51.6,28.7,30.02,NE,45,4.6,4.6,41,0.00,CLR,,0.00,WeatherDisplay:10.37,2013-03-04 18:55:00,
2013-03-04 14:00:00,51.7,29.3,30.02,NE,36,0.0,7.0,42,0.00,CLR,,0.00,WeatherDisplay:10.37,2013-03-04 19:00:00,
2013-03-04 14:05:00,52.0,28.4,30.02,ENE,68,3.5,0.0,40,0.00,CLR,,0.00,WeatherDisplay:10.37,2013-03-04 19:05:00,
2013-03-04 14:10:00,52.3,29.3,30.02,ENE,68,3.6,3.6,41,0.00,CLR,,0.00,WeatherDisplay:10.37,2013-03-04 19:10:00,
2013-03-04 14:15:00,52.5,29.5,30.01,North,0,4.7,4.7,41,0.00,CLR,,0.00,WeatherDisplay:10.37,2013-03-04 19:15:00,
2013-03-04 14:20:00,52.7,29.6,30.01,ENE,68,6.9,6.9,41,0.00,CLR,,0.00,WeatherDisplay:10.37,2013-03-04 19:20:00,
2013-03-04 14:25:00,52.7,29.0,30.01,ENE,68,4.6,4.6,40,0.00,CLR,,0.00,WeatherDisplay:10.37,2013-03-04 19:25:00,
2013-03-04 14:30:00,52.9,28.6,30.01,SE,135,4.6,4.6,39,0.00,CLR,,0.00,WeatherDisplay:10.37,2013-03-04 19:30:00,
2013-03-04 14:35:00,52.9,27.9,30.01,SE,135,3.5,3.5,38,0.00,CLR,,0.00,WeatherDisplay:10.37,2013-03-04 19:35:00,
2013-03-04 14:40:00,52.9,28.6,30.01,WSW,248,2.3,2.3,39,0.00,CLR,,0.00,WeatherDisplay:10.37,2013-03-04 19:40:00,
2013-03-04 14:45:00,53.4,30.3,30.01,WSW,248,2.3,2.3,41,0.00,CLR,,0.00,WeatherDisplay:10.37,2013-03-04 19:45:00,
2013-03-04 14:50:00,53.8,30.0,30.01,ESE,112,2.3,2.3,40,0.00,CLR,,0.00,WeatherDisplay:10.37,2013-03-04 19:50:00,
2013-03-04 14:55:00,54.5,31.3,30.01,SSE,158,3.1,3.1,41,0.00,CLR,,0.00,WeatherDisplay:10.37,2013-03-04 19:55:00,
2013-03-04 15:00:00,54.7,30.8,30.01,South,180,4.0,4.5,40,0.00,CLR,,0.00,WeatherDisplay:10.37,2013-03-04 20:00:00,
2013-03-04 15:05:00,55.0,31.7,30.01,WSW,248,4.6,4.6,41,0.00,CLR,,0.00,WeatherDisplay:10.37,2013-03-04 20:05:00,
2013-03-04 15:10:00,55.2,31.3,30.01,WSW,248,8.1,8.1,40,0.00,CLR,,0.00,WeatherDisplay:10.37,2013-03-04 20:10:00,
2013-03-04 15:15:00,55.2,31.3,30.01,WSW,248,5.8,5.8,40,0.00,CLR,,0.00,WeatherDisplay:10.37,2013-03-04 20:15:00,
2013-03-04 15:20:00,54.9,31.0,30.01,WSW,248,3.5,3.5,40,0.00,CLR,,0.00,WeatherDisplay:10.37,2013-03-04 20:20:00,
2013-03-04 15:25:00,54.9,31.0,30.01,WSW,248,3.5,3.5,40,0.00,CLR,,0.00,WeatherDisplay:10.37,2013-03-04 20:25:00,
2013-03-04 15:31:00,54.5,30.6,30.01,WSW,248,6.9,6.9,40,0.00,CLR,,0.00,WeatherDisplay:10.37,2013-03-04 20:31:00,
2013-03-04 15:36:00,54.3,30.5,30.00,WSW,248,6.9,6.9,40,0.00,CLR,,0.00,WeatherDisplay:10.37,2013-03-04 20:36:00,
2013-03-04 15:41:00,54.1,30.9,30.00,WSW,248,4.6,4.6,41,0.00,CLR,,0.00,WeatherDisplay:10.37,2013-03-04 20:41:00,
2013-03-04 15:46:00,53.8,30.6,30.00,WSW,248,4.6,4.6,41,0.00,CLR,,0.00,WeatherDisplay:10.37,2013-03-04 20:46:00,
2013-03-04 15:51:00,53.8,30.6,30.01,WSW,248,4.6,4.6,41,0.00,CLR,,0.00,WeatherDisplay:10.37,2013-03-04 20:51:00,
2013-03-04 15:56:00,53.4,30.3,30.01,WSW,248,5.8,5.8,41,0.00,CLR,,0.00,WeatherDisplay:10.37,2013-03-04 20:56:00,
2013-03-04 16:01:00,53.4,29.7,30.01,WSW,248,4.6,4.6,40,0.00,CLR,,0.00,WeatherDisplay:10.37,2013-03-04 21:01:00,
2013-03-04 16:06:00,53.2,28.9,30.01,WSW,248,4.6,4.6,39,0.00,CLR,,0.00,WeatherDisplay:10.37,2013-03-04 21:06:00,
2013-03-04 16:11:00,52.9,28.6,30.01,WSW,248,3.8,3.8,39,0.00,CLR,,0.00,WeatherDisplay:10.37,2013-03-04 21:11:00,
2013-03-04 16:16:00,52.7,29.0,30.01,WSW,248,9.2,9.2,40,0.00,CLR,,0.00,WeatherDisplay:10.37,2013-03-04 21:16:00,
2013-03-04 16:21:00,52.5,28.9,30.01,WSW,248,4.6,4.6,40,0.00,CLR,,0.00,WeatherDisplay:10.37,2013-03-04 21:21:00,
2013-03-04 16:26:00,52.3,29.3,30.00,WSW,248,5.8,5.8,41,0.00,CLR,,0.00,WeatherDisplay:10.37,2013-03-04 21:26:00,
2013-03-04 16:31:00,52.2,28.5,30.00,WSW,248,5.8,5.8,40,0.00,CLR,,0.00,WeatherDisplay:10.37,2013-03-04 21:31:00,
2013-03-04 16:36:00,51.8,28.2,30.00,WSW,248,6.9,6.9,40,0.00,CLR,,0.00,WeatherDisplay:10.37,2013-03-04 21:36:00,
2013-03-04 16:41:00,51.6,28.7,30.01,WSW,248,5.8,5.8,41,0.00,CLR,,0.00,WeatherDisplay:10.37,2013-03-04 21:41:00,
2013-03-04 16:47:00,51.4,27.9,30.01,SSE,158,5.8,5.8,40,0.00,CLR,,0.00,WeatherDisplay:10.37,2013-03-04 21:47:00,
2013-03-04 16:52:00,51.1,28.2,30.01,SSE,158,5.8,5.8,41,0.00,CLR,,0.00,WeatherDisplay:10.37,2013-03-04 21:52:00,
2013-03-04 16:57:00,50.7,27.8,30.01,SE,135,3.5,3.5,41,0.00,CLR,,0.00,WeatherDisplay:10.37,2013-03-04 21:57:00,
2013-03-04 17:02:00,50.4,28.1,30.01,SSE,158,1.2,1.2,42,0.00,CLR,,0.00,WeatherDisplay:10.37,2013-03-04 22:02:00,
2013-03-04 17:07:00,50.2,27.9,30.01,SSE,158,0.0,0.0,42,0.00,CLR,,0.00,WeatherDisplay:10.37,2013-03-04 22:07:00,
2013-03-04 17:12:00,49.8,28.2,30.01,West,270,2.3,2.3,43,0.00,CLR,,0.00,WeatherDisplay:10.37,2013-03-04 22:12:00,
2013-03-04 17:17:00,49.8,28.2,30.01,West,270,0.0,0.0,43,0.00,CLR,,0.00,WeatherDisplay:10.37,2013-03-04 22:17:00,
2013-03-04 17:22:00,49.6,28.6,30.01,West,270,3.5,3.5,44,0.00,CLR,,0.00,WeatherDisplay:10.37,2013-03-04 22:22:00,
2013-03-04 17:27:00,49.6,28.6,30.01,West,270,2.3,2.3,44,0.00,CLR,,0.00,WeatherDisplay:10.37,2013-03-04 22:27:00,
2013-03-04 17:32:00,49.6,28.6,30.01,SW,225,0.9,0.0,44,0.00,CLR,,0.00,WeatherDisplay:10.37,2013-03-04 22:32:00,
2013-03-04 17:37:00,49.5,29.5,30.01,WSW,248,2.3,2.3,46,0.00,CLR,,0.00,WeatherDisplay:10.37,2013-03-04 22:37:00,
2013-03-04 17:42:00,49.3,29.4,30.02,WSW,248,3.5,3.5,46,0.00,CLR,,0.00,WeatherDisplay:10.37,2013-03-04 22:42:00,
2013-03-04 17:45:00,49.3,29.4,30.02,WSW,242,1.0,4.0,46,0.00,CLR,,0.00,WeatherDisplay:10.37,2013-03-04 22:45:00,
2013-03-04 17:50:00,49.1,29.2,30.02,SW,225,3.5,3.5,46,0.00,CLR,,0.00,WeatherDisplay:10.37,2013-03-04 22:50:00,
2013-03-04 17:55:00,48.9,29.0,30.01,SW,225,0.0,0.0,46,0.00,CLR,,0.00,WeatherDisplay:10.37,2013-03-04 22:55:00,
2013-03-04 18:00:00,48.6,29.2,30.01,SW,225,0.0,0.0,47,0.00,CLR,,0.00,WeatherDisplay:10.37,2013-03-04 23:00:00,
2013-03-04 18:05:00,48.0,28.7,30.02,SW,225,0.0,0.0,47,0.00,FEW,,0.00,WeatherDisplay:10.37,2013-03-04 23:05:00,
2013-03-04 18:10:00,47.8,28.6,30.02,SW,225,3.5,3.5,47,0.00,FEW,,0.00,WeatherDisplay:10.37,2013-03-04 23:10:00,
2013-03-04 18:15:00,47.5,28.2,30.03,WSW,248,0.0,0.0,47,0.00,FEW,,0.00,WeatherDisplay:10.37,2013-03-04 23:15:00,
2013-03-04 18:20:00,47.3,28.6,30.03,WSW,248,0.0,0.0,48,0.00,FEW,,0.00,WeatherDisplay:10.37,2013-03-04 23:20:00,
2013-03-04 18:25:00,46.8,28.1,30.03,West,270,0.0,0.0,48,0.00,FEW,,0.00,WeatherDisplay:10.37,2013-03-04 23:25:00,
2013-03-04 18:30:00,46.6,28.4,30.03,West,270,0.0,0.0,49,0.00,FEW,,0.00,WeatherDisplay:10.37,2013-03-04 23:30:00,
2013-03-04 18:35:00,46.0,28.4,30.03,West,270,0.0,0.0,50,0.00,FEW,,0.00,WeatherDisplay:10.37,2013-03-04 23:35:00,
2013-03-04 18:40:00,45.7,28.6,30.03,North,0,0.0,0.0,51,0.00,FEW,,0.00,WeatherDisplay:10.37,2013-03-04 23:40:00,
2013-03-04 18:45:00,45.1,28.5,30.03,North,0,0.0,0.0,52,0.00,FEW,,0.00,WeatherDisplay:10.37,2013-03-04 23:45:00,
2013-03-04 18:50:00,44.8,28.7,30.03,North,0,0.0,0.0,53,0.00,FEW,,0.00,WeatherDisplay:10.37,2013-03-04 23:50:00,
2013-03-04 18:55:00,44.2,28.2,30.03,North,0,0.0,0.0,53,0.00,FEW,,0.00,WeatherDisplay:10.37,2013-03-04 23:55:00,
2013-03-04 19:01:00,43.7,28.1,30.03,North,0,0.0,0.0,54,0.00,FEW,,0.00,WeatherDisplay:10.37,2013-03-05 00:01:00,
2013-03-04 19:06:00,43.3,28.7,30.03,North,0,0.0,0.0,56,0.00,FEW,,0.00,WeatherDisplay:10.37,2013-03-05 00:06:00,
2013-03-04 19:11:00,43.0,28.3,30.03,North,0,0.0,0.0,56,0.00,FEW,,0.00,WeatherDisplay:10.37,2013-03-05 00:11:00,
2013-03-04 19:16:00,42.6,28.4,30.04,NNW,338,0.0,0.0,57,0.00,FEW,,0.00,WeatherDisplay:10.37,2013-03-05 00:16:00,
2013-03-04 19:21:00,42.1,27.9,30.04,NW,315,0.0,0.0,57,0.00,FEW,,0.00,WeatherDisplay:10.37,2013-03-05 00:21:00,
2013-03-04 19:26:00,41.9,28.2,30.04,NW,315,0.0,0.0,58,0.00,FEW,,0.00,WeatherDisplay:10.37,2013-03-05 00:26:00,
2013-03-04 19:31:00,41.7,28.0,30.05,NW,315,0.0,0.0,58,0.00,FEW,,0.00,WeatherDisplay:10.37,2013-03-05 00:31:00,
2013-03-04 19:36:00,41.5,28.3,30.04,NW,315,0.0,0.0,59,0.00,FEW,,0.00,WeatherDisplay:10.37,2013-03-05 00:36:00,
2013-03-04 19:41:00,41.5,28.3,30.04,NW,315,0.0,0.0,59,0.00,FEW,,0.00,WeatherDisplay:10.37,2013-03-05 00:41:00,
2013-03-04 19:46:00,41.2,28.3,30.04,NW,315,0.0,0.0,60,0.00,FEW,,0.00,WeatherDisplay:10.37,2013-03-05 00:46:00,
2013-03-04 19:51:00,41.2,28.7,30.04,NW,315,0.0,0.0,61,0.00,FEW,,0.00,WeatherDisplay:10.37,2013-03-05 00:51:00,
2013-03-04 19:56:00,41.0,28.6,30.04,NW,315,0.0,0.0,61,0.00,FEW,,0.00,WeatherDisplay:10.37,2013-03-05 00:56:00,
2013-03-04 20:01:00,40.8,28.4,30.04,NW,315,0.0,0.0,61,0.00,FEW,,0.00,WeatherDisplay:10.37,2013-03-05 01:01:00,
2013-03-04 20:06:00,40.6,28.2,30.04,NW,315,0.0,0.0,61,0.00,FEW,,0.00,WeatherDisplay:10.37,2013-03-05 01:06:00,
2013-03-04 20:11:00,40.3,28.3,30.04,NW,315,0.0,0.0,62,0.00,FEW,,0.00,WeatherDisplay:10.37,2013-03-05 01:11:00,
2013-03-04 20:17:00,40.3,28.7,30.04,NW,315,0.0,0.0,63,0.00,FEW,,0.00,WeatherDisplay:10.37,2013-03-05 01:17:00,
2013-03-04 20:22:00,40.1,28.9,30.04,NW,315,0.0,0.0,64,0.00,FEW,,0.00,WeatherDisplay:10.37,2013-03-05 01:22:00,
2013-03-04 20:27:00,39.9,28.7,30.04,NW,315,0.0,0.0,64,0.00,FEW,,0.00,WeatherDisplay:10.37,2013-03-05 01:27:00,
2013-03-04 20:32:00,39.9,28.7,30.04,NNW,338,0.0,0.0,64,0.00,FEW,,0.00,WeatherDisplay:10.37,2013-03-05 01:32:00,
2013-03-04 20:37:00,39.7,28.5,30.04,NNW,338,0.0,0.0,64,0.00,FEW,,0.00,WeatherDisplay:10.37,2013-03-05 01:37:00,
2013-03-04 20:42:00,39.6,28.4,30.04,NNW,338,0.0,0.0,64,0.00,FEW,,0.00,WeatherDisplay:10.37,2013-03-05 01:42:00,
2013-03-04 20:47:00,39.4,28.6,30.04,NNW,338,0.0,0.0,65,0.00,FEW,,0.00,WeatherDisplay:10.37,2013-03-05 01:47:00,
2013-03-04 20:52:00,39.4,28.6,30.04,NNW,338,0.0,0.0,65,0.00,FEW,,0.00,WeatherDisplay:10.37,2013-03-05 01:52:00,
2013-03-04 20:57:00,39.0,28.6,30.04,NNW,338,0.0,0.0,66,0.00,FEW,,0.00,WeatherDisplay:10.37,2013-03-05 01:57:00,
2013-03-04 21:02:00,39.0,29.0,30.04,NNW,338,0.0,0.0,67,0.00,CLR,,0.00,WeatherDisplay:10.37,2013-03-05 02:02:00,
2013-03-04 21:07:00,38.8,28.4,30.04,NNW,338,0.0,0.0,66,0.00,CLR,,0.00,WeatherDisplay:10.37,2013-03-05 02:07:00,
2013-03-04 21:12:00,38.7,28.6,30.04,NNW,338,0.0,0.0,67,0.00,CLR,,0.00,WeatherDisplay:10.37,2013-03-05 02:12:00,
2013-03-04 21:17:00,38.5,28.5,30.04,NNW,338,0.0,0.0,67,0.00,CLR,,0.00,WeatherDisplay:10.37,2013-03-05 02:17:00,
2013-03-04 21:22:00,38.5,28.5,30.05,NNW,338,0.0,0.0,67,0.00,CLR,,0.00,WeatherDisplay:10.37,2013-03-05 02:22:00,
2013-03-04 21:27:00,38.5,28.5,30.05,NNW,338,0.0,0.0,67,0.00,CLR,,0.00,WeatherDisplay:10.37,2013-03-05 02:27:00,
2013-03-04 21:33:00,38.5,28.5,30.04,NNW,338,0.0,0.0,67,0.00,CLR,,0.00,WeatherDisplay:10.37,2013-03-05 02:33:00,
2013-03-04 21:38:00,38.3,28.3,30.05,NNW,338,0.0,0.0,67,0.00,CLR,,0.00,WeatherDisplay:10.37,2013-03-05 02:38:00,
2013-03-04 21:43:00,38.1,28.5,30.05,NNW,338,0.0,0.0,68,0.00,CLR,,0.00,WeatherDisplay:10.37,2013-03-05 02:43:00,
2013-03-04 21:48:00,37.9,28.7,30.05,NNW,338,0.0,0.0,69,0.00,CLR,,0.00,WeatherDisplay:10.37,2013-03-05 02:48:00,
2013-03-04 21:53:00,37.9,28.3,30.06,NNW,338,0.0,0.0,68,0.00,CLR,,0.00,WeatherDisplay:10.37,2013-03-05 02:53:00,
2013-03-04 21:58:00,37.8,28.1,30.05,NNW,338,0.0,0.0,68,0.00,CLR,,0.00,WeatherDisplay:10.37,2013-03-05 02:58:00,
2013-03-04 22:03:00,37.6,28.0,30.06,NNW,338,0.0,0.0,68,0.00,SCT,,0.00,WeatherDisplay:10.37,2013-03-05 03:03:00,
2013-03-04 22:08:00,37.2,28.0,30.06,NNW,338,0.0,0.0,69,0.00,SCT,,0.00,WeatherDisplay:10.37,2013-03-05 03:08:00,
2013-03-04 22:13:00,37.2,28.0,30.05,NNW,338,0.0,0.0,69,0.00,SCT,,0.00,WeatherDisplay:10.37,2013-03-05 03:13:00,
2013-03-04 22:18:00,37.2,28.0,30.05,NNW,338,0.0,0.0,69,0.00,SCT,,0.00,WeatherDisplay:10.37,2013-03-05 03:18:00,
2013-03-04 22:23:00,37.0,27.8,30.05,NNW,338,0.0,0.0,69,0.00,SCT,,0.00,WeatherDisplay:10.37,2013-03-05 03:23:00,
2013-03-04 22:28:00,36.9,27.6,30.05,NNW,338,0.0,0.0,69,0.00,SCT,,0.00,WeatherDisplay:10.37,2013-03-05 03:28:00,
2013-03-04 22:33:00,36.7,27.8,30.05,NNW,338,0.0,0.0,70,0.00,SCT,,0.00,WeatherDisplay:10.37,2013-03-05 03:33:00,
2013-03-04 22:38:00,36.5,27.6,30.05,NNW,338,0.0,0.0,70,0.00,SCT,,0.00,WeatherDisplay:10.37,2013-03-05 03:38:00,
2013-03-04 22:43:00,36.5,27.6,30.05,NNW,338,0.0,0.0,70,0.00,SCT,,0.00,WeatherDisplay:10.37,2013-03-05 03:43:00,
2013-03-04 22:49:00,36.3,27.5,30.05,NNW,338,0.0,0.0,70,0.00,SCT,,0.00,WeatherDisplay:10.37,2013-03-05 03:49:00,
2013-03-04 22:54:00,36.3,27.8,30.05,NNW,338,0.0,0.0,71,0.00,SCT,,0.00,WeatherDisplay:10.37,2013-03-05 03:54:00,
2013-03-04 22:59:00,36.3,27.8,30.04,NNW,338,0.0,0.0,71,0.00,SCT,,0.00,WeatherDisplay:10.37,2013-03-05 03:59:00,
2013-03-04 23:04:00,36.3,27.8,30.04,NNW,338,0.0,0.0,71,0.00,FEW,,0.00,WeatherDisplay:10.37,2013-03-05 04:04:00,
2013-03-04 23:09:00,36.3,27.8,30.04,NNW,338,0.0,0.0,71,0.00,FEW,,0.00,WeatherDisplay:10.37,2013-03-05 04:09:00,
2013-03-04 23:14:00,36.3,27.8,30.04,NNW,338,0.0,0.0,71,0.00,FEW,,0.00,WeatherDisplay:10.37,2013-03-05 04:14:00,
2013-03-04 23:19:00,36.3,27.8,30.04,NNW,338,0.0,0.0,71,0.00,FEW,,0.00,WeatherDisplay:10.37,2013-03-05 04:19:00,
2013-03-04 23:24:00,36.1,27.6,30.04,NNW,338,0.0,0.0,71,0.00,FEW,,0.00,WeatherDisplay:10.37,2013-03-05 04:24:00,
2013-03-04 23:29:00,36.1,28.0,30.04,NNW,338,0.0,0.0,72,0.00,FEW,,0.00,WeatherDisplay:10.37,2013-03-05 04:29:00,
2013-03-04 23:34:00,36.1,28.0,30.04,NNW,338,0.0,0.0,72,0.00,FEW,,0.00,WeatherDisplay:10.37,2013-03-05 04:34:00,
2013-03-04 23:39:00,36.0,27.8,30.04,NNW,338,0.0,0.0,72,0.00,FEW,,0.00,WeatherDisplay:10.37,2013-03-05 04:39:00,
2013-03-04 23:44:00,35.8,27.6,30.04,NNW,338,0.0,0.0,72,0.00,FEW,,0.00,WeatherDisplay:10.37,2013-03-05 04:44:00,
2013-03-04 23:49:00,35.8,27.6,30.04,NNW,338,0.0,0.0,72,0.00,FEW,,0.00,WeatherDisplay:10.37,2013-03-05 04:49:00,
2013-03-04 23:54:00,35.8,28.0,30.04,NNW,338,0.0,0.0,73,0.00,FEW,,0.00,WeatherDisplay:10.37,2013-03-05 04:54:00,
2013-03-04 23:59:00,35.8,28.0,30.04,NNW,338,0.0,0.0,73,0.00,FEW,,0.00,WeatherDisplay:10.37,2013-03-05 04:59:00,